EZY68AW EHAM-EGMC
Flight info
| Callsign | EZY68AW |
|---|---|
| Flight time | 0h 36m |
| Altitude | 20000 |
| Route | IDRID L980 XAMAN |
| Aircraft | A20N/M-SDE2E3FGHIJ1RWXYZ/LB1G1 |
Departure
| Time | 2026-05-07 12:07 |
|---|---|
| Airport | Amsterdam Airport Schiphol (EHAM) |
Arrival
| Time | 2026-05-07 12:43 |
|---|---|
| Airport | London Southend Airport (EGMC) |
| Time | Latitude | Longitude | Altitude | Speed | Heading |
|---|---|---|---|---|---|
| 2026-05-07 11:52 | 52.31045 | 4.75519 | -1 ft | 0 kts | 148° |
| 2026-05-07 11:55 | 52.31051 | 4.75513 | -1 ft | 4 kts | 149° |
| 2026-05-07 11:55 | 52.31074 | 4.75491 | -1 ft | 4 kts | 142° |
| 2026-05-07 11:55 | 52.31083 | 4.75469 | -1 ft | 3 kts | 73° |
| 2026-05-07 11:55 | 52.31078 | 4.75443 | -1 ft | 0 kts | 72° |
| 2026-05-07 11:58 | 52.31081 | 4.75451 | -1 ft | 2 kts | 60° |
| 2026-05-07 11:59 | 52.31098 | 4.75483 | -1 ft | 6 kts | 40° |
| 2026-05-07 11:59 | 52.31144 | 4.75498 | -1 ft | 8 kts | 358° |
| 2026-05-07 11:59 | 52.31213 | 4.75491 | -1 ft | 11 kts | 356° |
| 2026-05-07 11:59 | 52.31288 | 4.75484 | -1 ft | 11 kts | 357° |
| 2026-05-07 12:00 | 52.31361 | 4.75477 | -1 ft | 10 kts | 357° |
| 2026-05-07 12:00 | 52.31420 | 4.75445 | -1 ft | 8 kts | 308° |
| 2026-05-07 12:00 | 52.31423 | 4.75360 | -1 ft | 9 kts | 266° |
| 2026-05-07 12:00 | 52.31418 | 4.75231 | -1 ft | 14 kts | 266° |
| 2026-05-07 12:01 | 52.31412 | 4.75046 | -1 ft | 18 kts | 267° |
| 2026-05-07 12:01 | 52.31406 | 4.74835 | -1 ft | 19 kts | 267° |
| 2026-05-07 12:01 | 52.31399 | 4.74625 | -1 ft | 18 kts | 268° |
| 2026-05-07 12:01 | 52.31394 | 4.74422 | -1 ft | 17 kts | 266° |
| 2026-05-07 12:02 | 52.31387 | 4.74249 | -1 ft | 13 kts | 266° |
| 2026-05-07 12:02 | 52.31347 | 4.74135 | -1 ft | 12 kts | 194° |
| 2026-05-07 12:02 | 52.31255 | 4.74125 | -1 ft | 15 kts | 184° |
| 2026-05-07 12:02 | 52.31132 | 4.74115 | -1 ft | 20 kts | 183° |
| 2026-05-07 12:03 | 52.30985 | 4.74102 | -1 ft | 19 kts | 185° |
| 2026-05-07 12:03 | 52.30845 | 4.74089 | -1 ft | 20 kts | 185° |
| 2026-05-07 12:03 | 52.30704 | 4.74077 | -1 ft | 16 kts | 183° |
| 2026-05-07 12:03 | 52.30601 | 4.74068 | -1 ft | 10 kts | 183° |
| 2026-05-07 12:04 | 52.30516 | 4.74061 | -1 ft | 15 kts | 183° |
| 2026-05-07 12:04 | 52.30406 | 4.74050 | -1 ft | 16 kts | 184° |
| 2026-05-07 12:04 | 52.30308 | 4.73997 | -1 ft | 13 kts | 204° |
| 2026-05-07 12:04 | 52.30248 | 4.73950 | -1 ft | 6 kts | 212° |
| 2026-05-07 12:05 | 52.30219 | 4.73913 | -2 ft | 6 kts | 218° |
| 2026-05-07 12:05 | 52.30189 | 4.73825 | -2 ft | 9 kts | 264° |
| 2026-05-07 12:05 | 52.30194 | 4.73754 | -2 ft | 5 kts | 302° |
| 2026-05-07 12:05 | 52.30240 | 4.73739 | -4 ft | 10 kts | 2° |
| 2026-05-07 12:06 | 52.30329 | 4.73747 | -5 ft | 16 kts | 3° |
| 2026-05-07 12:06 | 52.30568 | 4.73772 | -4 ft | 72 kts | 4° |
| 2026-05-07 12:06 | 52.31343 | 4.73843 | 0 ft | 146 kts | 4° |
| 2026-05-07 12:06 | 52.32417 | 4.73914 | 578 ft | 159 kts | 4° |
| 2026-05-07 12:07 | 52.33520 | 4.73741 | 1501 ft | 161 kts | 344° |
| 2026-05-07 12:07 | 52.34623 | 4.73162 | 2120 ft | 177 kts | 343° |
| 2026-05-07 12:07 | 52.35894 | 4.72495 | 2631 ft | 204 kts | 343° |
| 2026-05-07 12:07 | 52.37298 | 4.71657 | 3367 ft | 227 kts | 331° |
| 2026-05-07 12:08 | 52.38463 | 4.69765 | 4201 ft | 251 kts | 300° |
| 2026-05-07 12:08 | 52.38923 | 4.66956 | 5332 ft | 262 kts | 270° |
| 2026-05-07 12:08 | 52.38529 | 4.64044 | 6639 ft | 266 kts | 245° |
| 2026-05-07 12:08 | 52.37669 | 4.61332 | 7880 ft | 271 kts | 240° |
| 2026-05-07 12:09 | 52.36733 | 4.58629 | 9157 ft | 276 kts | 239° |
| 2026-05-07 12:09 | 52.35776 | 4.55875 | 10412 ft | 281 kts | 240° |
| 2026-05-07 12:09 | 52.34780 | 4.52974 | 11149 ft | 305 kts | 240° |
| 2026-05-07 12:09 | 52.33725 | 4.49853 | 11691 ft | 329 kts | 241° |
| 2026-05-07 12:10 | 52.32601 | 4.46497 | 12529 ft | 341 kts | 241° |
| 2026-05-07 12:10 | 52.31458 | 4.43079 | 13636 ft | 346 kts | 242° |
| 2026-05-07 12:10 | 52.30296 | 4.39605 | 14599 ft | 351 kts | 242° |
| 2026-05-07 12:10 | 52.29119 | 4.36086 | 15584 ft | 355 kts | 242° |
| 2026-05-07 12:11 | 52.27924 | 4.32522 | 16523 ft | 361 kts | 241° |
| 2026-05-07 12:11 | 52.26716 | 4.28923 | 17513 ft | 364 kts | 241° |
| 2026-05-07 12:11 | 52.25492 | 4.25286 | 18479 ft | 367 kts | 241° |
| 2026-05-07 12:11 | 52.24252 | 4.21603 | 19243 ft | 373 kts | 241° |
| 2026-05-07 12:12 | 52.22993 | 4.17873 | 19796 ft | 378 kts | 241° |
| 2026-05-07 12:12 | 52.21725 | 4.14120 | 20033 ft | 378 kts | 241° |
| 2026-05-07 12:12 | 52.20460 | 4.10385 | 20088 ft | 376 kts | 241° |
| 2026-05-07 12:12 | 52.19190 | 4.06638 | 20091 ft | 379 kts | 241° |
| 2026-05-07 12:13 | 52.17911 | 4.02873 | 20088 ft | 378 kts | 241° |
| 2026-05-07 12:13 | 52.16640 | 3.99136 | 20087 ft | 377 kts | 241° |
| 2026-05-07 12:13 | 52.15368 | 3.95404 | 20091 ft | 378 kts | 241° |
| 2026-05-07 12:13 | 52.14090 | 3.91656 | 20087 ft | 379 kts | 241° |
| 2026-05-07 12:14 | 52.12825 | 3.87953 | 20091 ft | 377 kts | 241° |
| 2026-05-07 12:14 | 52.11550 | 3.84230 | 20099 ft | 376 kts | 241° |
| 2026-05-07 12:14 | 52.10272 | 3.80500 | 20085 ft | 378 kts | 241° |
| 2026-05-07 12:14 | 52.08988 | 3.76759 | 20094 ft | 379 kts | 241° |
| 2026-05-07 12:15 | 52.07705 | 3.73027 | 20095 ft | 377 kts | 241° |
| 2026-05-07 12:15 | 52.06427 | 3.69315 | 20100 ft | 376 kts | 241° |
| 2026-05-07 12:15 | 52.05142 | 3.65589 | 20102 ft | 378 kts | 241° |
| 2026-05-07 12:15 | 52.03852 | 3.61853 | 20101 ft | 378 kts | 241° |
| 2026-05-07 12:16 | 52.02567 | 3.58138 | 20102 ft | 377 kts | 240° |
| 2026-05-07 12:16 | 52.01282 | 3.54427 | 20100 ft | 378 kts | 240° |
| 2026-05-07 12:16 | 51.99986 | 3.50708 | 20102 ft | 379 kts | 239° |
| 2026-05-07 12:16 | 51.98515 | 3.47165 | 20098 ft | 377 kts | 233° |
| 2026-05-07 12:17 | 51.96956 | 3.43742 | 20093 ft | 376 kts | 234° |
| 2026-05-07 12:17 | 51.95404 | 3.40308 | 20094 ft | 378 kts | 234° |
| 2026-05-07 12:17 | 51.93848 | 3.36861 | 20097 ft | 379 kts | 234° |
| 2026-05-07 12:17 | 51.92292 | 3.33421 | 20099 ft | 378 kts | 234° |
| 2026-05-07 12:18 | 51.90755 | 3.30029 | 20095 ft | 378 kts | 234° |
| 2026-05-07 12:18 | 51.89197 | 3.26596 | 20095 ft | 379 kts | 234° |
| 2026-05-07 12:18 | 51.87632 | 3.23153 | 20095 ft | 378 kts | 234° |
| 2026-05-07 12:18 | 51.86151 | 3.19646 | 20095 ft | 378 kts | 241° |
| 2026-05-07 12:19 | 51.85091 | 3.15756 | 20086 ft | 378 kts | 252° |
| 2026-05-07 12:19 | 51.84535 | 3.11601 | 20090 ft | 379 kts | 263° |
| 2026-05-07 12:19 | 51.84275 | 3.07367 | 20084 ft | 378 kts | 264° |
| 2026-05-07 12:19 | 51.84010 | 3.03127 | 20087 ft | 378 kts | 264° |
| 2026-05-07 12:20 | 51.83739 | 2.98902 | 20087 ft | 378 kts | 264° |
| 2026-05-07 12:20 | 51.83463 | 2.94667 | 20087 ft | 379 kts | 264° |
| 2026-05-07 12:20 | 51.83184 | 2.90431 | 20092 ft | 379 kts | 263° |
| 2026-05-07 12:20 | 51.82903 | 2.86197 | 20087 ft | 379 kts | 263° |
| 2026-05-07 12:21 | 51.82620 | 2.81958 | 20087 ft | 378 kts | 263° |
| 2026-05-07 12:21 | 51.82336 | 2.77732 | 20091 ft | 378 kts | 263° |
| 2026-05-07 12:21 | 51.82051 | 2.73495 | 20084 ft | 379 kts | 263° |
| 2026-05-07 12:21 | 51.81764 | 2.69266 | 20084 ft | 378 kts | 263° |
| 2026-05-07 12:22 | 51.81479 | 2.65089 | 20087 ft | 379 kts | 263° |
| 2026-05-07 12:22 | 51.81188 | 2.60860 | 20087 ft | 378 kts | 263° |
| 2026-05-07 12:22 | 51.80896 | 2.56637 | 20090 ft | 379 kts | 263° |
| 2026-05-07 12:22 | 51.80602 | 2.52407 | 20087 ft | 379 kts | 263° |
| 2026-05-07 12:23 | 51.80306 | 2.48176 | 20093 ft | 378 kts | 263° |
| 2026-05-07 12:23 | 51.80009 | 2.43959 | 20087 ft | 378 kts | 263° |
| 2026-05-07 12:23 | 51.79711 | 2.39737 | 20087 ft | 378 kts | 263° |
| 2026-05-07 12:23 | 51.79412 | 2.35516 | 19955 ft | 378 kts | 263° |
| 2026-05-07 12:24 | 51.79111 | 2.31308 | 19707 ft | 376 kts | 263° |
| 2026-05-07 12:24 | 51.78810 | 2.27113 | 19445 ft | 374 kts | 263° |
| 2026-05-07 12:24 | 51.78508 | 2.22931 | 18875 ft | 375 kts | 263° |
| 2026-05-07 12:24 | 51.78224 | 2.18751 | 18199 ft | 374 kts | 264° |
| 2026-05-07 12:25 | 51.77983 | 2.14603 | 17606 ft | 367 kts | 264° |
| 2026-05-07 12:25 | 51.77756 | 2.10524 | 17009 ft | 362 kts | 264° |
| 2026-05-07 12:25 | 51.77529 | 2.06511 | 16419 ft | 356 kts | 264° |
| 2026-05-07 12:25 | 51.77299 | 2.02552 | 15836 ft | 352 kts | 264° |
| 2026-05-07 12:26 | 51.77071 | 1.98700 | 15268 ft | 347 kts | 264° |
| 2026-05-07 12:26 | 51.76839 | 1.94840 | 14703 ft | 344 kts | 264° |
| 2026-05-07 12:26 | 51.76608 | 1.91013 | 14146 ft | 341 kts | 264° |
| 2026-05-07 12:26 | 51.76377 | 1.87222 | 13563 ft | 338 kts | 264° |
| 2026-05-07 12:27 | 51.76147 | 1.83459 | 13009 ft | 334 kts | 264° |
| 2026-05-07 12:27 | 51.75919 | 1.79750 | 12469 ft | 330 kts | 264° |
| 2026-05-07 12:27 | 51.75693 | 1.76085 | 11937 ft | 326 kts | 264° |
| 2026-05-07 12:27 | 51.75468 | 1.72457 | 11410 ft | 323 kts | 264° |
| 2026-05-07 12:28 | 51.75245 | 1.68897 | 11146 ft | 312 kts | 264° |
| 2026-05-07 12:28 | 51.75032 | 1.65483 | 10980 ft | 299 kts | 264° |
| 2026-05-07 12:28 | 51.74824 | 1.62182 | 10651 ft | 293 kts | 264° |
| 2026-05-07 12:28 | 51.74620 | 1.58957 | 10408 ft | 288 kts | 264° |
| 2026-05-07 12:29 | 51.74415 | 1.55724 | 10164 ft | 290 kts | 264° |
| 2026-05-07 12:29 | 51.74209 | 1.52507 | 9885 ft | 287 kts | 264° |
| 2026-05-07 12:29 | 51.74005 | 1.49318 | 9495 ft | 285 kts | 264° |
| 2026-05-07 12:29 | 51.73801 | 1.46161 | 9107 ft | 281 kts | 263° |
| 2026-05-07 12:30 | 51.73601 | 1.43048 | 8733 ft | 277 kts | 263° |
| 2026-05-07 12:30 | 51.73405 | 1.40013 | 8360 ft | 274 kts | 263° |
| 2026-05-07 12:30 | 51.73208 | 1.36970 | 7978 ft | 271 kts | 263° |
| 2026-05-07 12:30 | 51.73013 | 1.33963 | 7614 ft | 269 kts | 262° |
| 2026-05-07 12:31 | 51.72819 | 1.30983 | 7259 ft | 266 kts | 263° |
| 2026-05-07 12:31 | 51.72621 | 1.27987 | 7120 ft | 273 kts | 262° |
| 2026-05-07 12:31 | 51.72422 | 1.24969 | 7009 ft | 268 kts | 262° |
| 2026-05-07 12:31 | 51.72222 | 1.21967 | 6646 ft | 268 kts | 263° |
| 2026-05-07 12:32 | 51.72025 | 1.18989 | 6290 ft | 265 kts | 263° |
| 2026-05-07 12:32 | 51.71831 | 1.16059 | 6069 ft | 264 kts | 262° |
| 2026-05-07 12:32 | 51.71473 | 1.13140 | 6079 ft | 265 kts | 252° |
| 2026-05-07 12:32 | 51.70931 | 1.10321 | 6061 ft | 262 kts | 251° |
| 2026-05-07 12:33 | 51.69838 | 1.04725 | 5334 ft | 261 kts | 251° |
| 2026-05-07 12:33 | 51.69287 | 1.01930 | 4879 ft | 262 kts | 251° |
| 2026-05-07 12:33 | 51.68726 | 0.99132 | 4428 ft | 262 kts | 251° |
| 2026-05-07 12:34 | 51.68183 | 0.96388 | 4099 ft | 257 kts | 251° |
| 2026-05-07 12:34 | 51.67665 | 0.93710 | 3995 ft | 244 kts | 251° |
| 2026-05-07 12:34 | 51.67191 | 0.91156 | 3907 ft | 233 kts | 251° |
| 2026-05-07 12:34 | 51.66738 | 0.88709 | 3820 ft | 223 kts | 251° |
| 2026-05-07 12:35 | 51.66297 | 0.86372 | 3729 ft | 214 kts | 251° |
| 2026-05-07 12:35 | 51.65885 | 0.84123 | 3657 ft | 205 kts | 251° |
| 2026-05-07 12:35 | 51.65482 | 0.81968 | 3574 ft | 197 kts | 251° |
| 2026-05-07 12:35 | 51.65095 | 0.79887 | 3491 ft | 192 kts | 251° |
| 2026-05-07 12:36 | 51.64839 | 0.78500 | 3457 ft | 196 kts | 251° |
| 2026-05-07 12:36 | 51.64449 | 0.76414 | 3370 ft | 193 kts | 251° |
| 2026-05-07 12:36 | 51.64070 | 0.74336 | 3293 ft | 194 kts | 251° |
| 2026-05-07 12:36 | 51.63679 | 0.72261 | 3214 ft | 193 kts | 251° |
| 2026-05-07 12:37 | 51.63232 | 0.70232 | 3133 ft | 192 kts | 239° |
| 2026-05-07 12:37 | 51.62558 | 0.68380 | 3062 ft | 191 kts | 236° |
| 2026-05-07 12:37 | 51.61871 | 0.66544 | 3004 ft | 192 kts | 236° |
| 2026-05-07 12:37 | 51.61166 | 0.64710 | 3000 ft | 193 kts | 236° |
| 2026-05-07 12:38 | 51.60464 | 0.62870 | 2995 ft | 193 kts | 236° |
| 2026-05-07 12:38 | 51.59759 | 0.61022 | 2942 ft | 193 kts | 236° |
| 2026-05-07 12:38 | 51.59061 | 0.59231 | 2816 ft | 186 kts | 236° |
| 2026-05-07 12:38 | 51.58377 | 0.57459 | 2682 ft | 188 kts | 236° |
| 2026-05-07 12:39 | 51.57693 | 0.55662 | 2556 ft | 188 kts | 236° |
| 2026-05-07 12:39 | 51.57006 | 0.53876 | 2428 ft | 187 kts | 236° |
| 2026-05-07 12:39 | 51.56322 | 0.52121 | 2297 ft | 185 kts | 235° |
| 2026-05-07 12:39 | 51.55373 | 0.50810 | 2160 ft | 181 kts | 197° |
| 2026-05-07 12:40 | 51.54147 | 0.50797 | 2042 ft | 178 kts | 156° |
| 2026-05-07 12:40 | 51.53093 | 0.51782 | 2023 ft | 177 kts | 146° |
| 2026-05-07 12:40 | 51.52233 | 0.53154 | 1997 ft | 178 kts | 115° |
| 2026-05-07 12:40 | 51.52044 | 0.55117 | 1998 ft | 179 kts | 91° |
| 2026-05-07 12:41 | 51.52086 | 0.57007 | 1990 ft | 160 kts | 83° |
| 2026-05-07 12:41 | 51.52413 | 0.58725 | 1783 ft | 162 kts | 65° |
| 2026-05-07 12:41 | 51.52976 | 0.60239 | 1526 ft | 153 kts | 57° |
| 2026-05-07 12:41 | 51.53563 | 0.61552 | 1294 ft | 137 kts | 56° |
| 2026-05-07 12:42 | 51.54094 | 0.62736 | 1080 ft | 125 kts | 56° |
| 2026-05-07 12:42 | 51.54586 | 0.63833 | 871 ft | 117 kts | 56° |
| 2026-05-07 12:42 | 51.55077 | 0.64931 | 689 ft | 121 kts | 57° |
| 2026-05-07 12:42 | 51.55551 | 0.66006 | 478 ft | 117 kts | 57° |
| 2026-05-07 12:43 | 51.56029 | 0.67071 | 297 ft | 116 kts | 57° |
| 2026-05-07 12:43 | 51.56502 | 0.68129 | 135 ft | 117 kts | 57° |
| 2026-05-07 12:43 | 51.56955 | 0.69145 | 52 ft | 96 kts | 54° |
| 2026-05-07 12:43 | 51.57184 | 0.69645 | 55 ft | 28 kts | 53° |
| 2026-05-07 12:44 | 51.57245 | 0.69782 | 58 ft | 8 kts | 57° |
| 2026-05-07 12:44 | 51.57216 | 0.69877 | 51 ft | 14 kts | 143° |
| 2026-05-07 12:44 | 51.57133 | 0.69971 | 51 ft | 16 kts | 144° |
| 2026-05-07 12:44 | 51.57048 | 0.70069 | 54 ft | 15 kts | 145° |
| 2026-05-07 12:45 | 51.56980 | 0.70145 | 49 ft | 8 kts | 145° |
| 2026-05-07 12:45 | 51.56966 | 0.70216 | 54 ft | 6 kts | 90° |
| 2026-05-07 12:45 | 51.56966 | 0.70260 | 54 ft | 4 kts | 92° |
| 2026-05-07 12:45 | 51.56965 | 0.70283 | 54 ft | 1 kts | 93° |
| 2026-05-07 12:46 | 51.56965 | 0.70287 | 54 ft | 0 kts | 93° |